sensor_id;sensor_type;location;lat;lon;timestamp;P1;durP1;ratioP1;P2;durP2;ratioP2
3771;SDS011;1901;48.172;12.824;2023-05-10T00:01:18;8.00;;;7.13;;
3771;SDS011;1901;48.172;12.824;2023-05-10T00:03:45;10.13;;;6.93;;
3771;SDS011;1901;48.172;12.824;2023-05-10T00:06:12;10.80;;;6.50;;
3771;SDS011;1901;48.172;12.824;2023-05-10T00:08:40;11.77;;;6.90;;
3771;SDS011;1901;48.172;12.824;2023-05-10T00:11:07;10.07;;;6.97;;
3771;SDS011;1901;48.172;12.824;2023-05-10T00:13:34;9.13;;;7.80;;
3771;SDS011;1901;48.172;12.824;2023-05-10T00:16:01;9.10;;;7.60;;
3771;SDS011;1901;48.172;12.824;2023-05-10T00:18:30;10.73;;;7.70;;
3771;SDS011;1901;48.172;12.824;2023-05-10T00:20:57;9.77;;;7.37;;
3771;SDS011;1901;48.172;12.824;2023-05-10T00:23:24;6.90;;;6.17;;
3771;SDS011;1901;48.172;12.824;2023-05-10T00:25:51;10.70;;;7.80;;
3771;SDS011;1901;48.172;12.824;2023-05-10T00:28:18;12.67;;;7.57;;
3771;SDS011;1901;48.172;12.824;2023-05-10T00:30:45;8.50;;;6.03;;
3771;SDS011;1901;48.172;12.824;2023-05-10T00:33:13;9.77;;;7.67;;
3771;SDS011;1901;48.172;12.824;2023-05-10T00:35:42;8.90;;;6.30;;
3771;SDS011;1901;48.172;12.824;2023-05-10T00:38:09;13.80;;;7.27;;
3771;SDS011;1901;48.172;12.824;2023-05-10T00:40:36;7.20;;;6.13;;
3771;SDS011;1901;48.172;12.824;2023-05-10T00:43:03;8.73;;;7.60;;
3771;SDS011;1901;48.172;12.824;2023-05-10T00:45:31;8.20;;;6.63;;
3771;SDS011;1901;48.172;12.824;2023-05-10T00:47:59;10.50;;;8.33;;
3771;SDS011;1901;48.172;12.824;2023-05-10T00:50:27;9.70;;;7.20;;
3771;SDS011;1901;48.172;12.824;2023-05-10T00:52:57;8.23;;;6.40;;
3771;SDS011;1901;48.172;12.824;2023-05-10T00:55:24;13.13;;;8.13;;
3771;SDS011;1901;48.172;12.824;2023-05-10T00:57:51;9.00;;;7.10;;
3771;SDS011;1901;48.172;12.824;2023-05-10T01:00:19;9.67;;;8.33;;
3771;SDS011;1901;48.172;12.824;2023-05-10T01:02:46;13.37;;;8.20;;
3771;SDS011;1901;48.172;12.824;2023-05-10T01:05:14;11.03;;;8.77;;
3771;SDS011;1901;48.172;12.824;2023-05-10T01:07:41;10.33;;;7.63;;
3771;SDS011;1901;48.172;12.824;2023-05-10T01:10:10;10.50;;;8.60;;
3771;SDS011;1901;48.172;12.824;2023-05-10T01:12:38;8.13;;;7.10;;
3771;SDS011;1901;48.172;12.824;2023-05-10T01:15:06;9.63;;;7.47;;
3771;SDS011;1901;48.172;12.824;2023-05-10T01:17:34;8.07;;;7.27;;
3771;SDS011;1901;48.172;12.824;2023-05-10T01:20:02;8.50;;;6.97;;
3771;SDS011;1901;48.172;12.824;2023-05-10T01:22:39;7.70;;;6.90;;
3771;SDS011;1901;48.172;12.824;2023-05-10T01:28:08;8.07;;;7.10;;
3771;SDS011;1901;48.172;12.824;2023-05-10T01:33:40;8.50;;;7.60;;
3771;SDS011;1901;48.172;12.824;2023-05-10T01:36:13;14.60;;;7.77;;
3771;SDS011;1901;48.172;12.824;2023-05-10T01:38:42;11.73;;;7.23;;
3771;SDS011;1901;48.172;12.824;2023-05-10T01:41:17;7.90;;;5.40;;
3771;SDS011;1901;48.172;12.824;2023-05-10T01:43:48;6.20;;;5.10;;
3771;SDS011;1901;48.172;12.824;2023-05-10T01:46:17;6.70;;;4.70;;
3771;SDS011;1901;48.172;12.824;2023-05-10T01:48:51;5.67;;;5.17;;
3771;SDS011;1901;48.172;12.824;2023-05-10T01:51:19;5.77;;;4.97;;
3771;SDS011;1901;48.172;12.824;2023-05-10T01:53:48;3.50;;;3.20;;
3771;SDS011;1901;48.172;12.824;2023-05-10T01:56:16;3.40;;;3.10;;
3771;SDS011;1901;48.172;12.824;2023-05-10T01:58:46;5.40;;;4.03;;
3771;SDS011;1901;48.172;12.824;2023-05-10T02:01:15;3.60;;;3.30;;
3771;SDS011;1901;48.172;12.824;2023-05-10T02:03:43;3.27;;;2.13;;
3771;SDS011;1901;48.172;12.824;2023-05-10T02:06:12;2.87;;;2.57;;
3771;SDS011;1901;48.172;12.824;2023-05-10T02:08:39;2.57;;;1.97;;
3771;SDS011;1901;48.172;12.824;2023-05-10T02:11:07;2.63;;;2.00;;
3771;SDS011;1901;48.172;12.824;2023-05-10T02:13:37;3.03;;;2.60;;
3771;SDS011;1901;48.172;12.824;2023-05-10T02:16:05;2.73;;;2.20;;
3771;SDS011;1901;48.172;12.824;2023-05-10T02:18:34;4.20;;;3.77;;
3771;SDS011;1901;48.172;12.824;2023-05-10T02:21:02;4.53;;;3.70;;
3771;SDS011;1901;48.172;12.824;2023-05-10T02:23:31;4.13;;;2.77;;
3771;SDS011;1901;48.172;12.824;2023-05-10T02:25:58;2.60;;;1.97;;
3771;SDS011;1901;48.172;12.824;2023-05-10T02:28:27;2.80;;;2.43;;
3771;SDS011;1901;48.172;12.824;2023-05-10T02:30:54;2.30;;;1.70;;
3771;SDS011;1901;48.172;12.824;2023-05-10T02:33:22;2.60;;;2.00;;
3771;SDS011;1901;48.172;12.824;2023-05-10T02:35:49;4.30;;;3.13;;
3771;SDS011;1901;48.172;12.824;2023-05-10T02:38:17;3.50;;;2.90;;
3771;SDS011;1901;48.172;12.824;2023-05-10T02:40:47;2.60;;;2.30;;
3771;SDS011;1901;48.172;12.824;2023-05-10T02:43:14;3.93;;;1.97;;
3771;SDS011;1901;48.172;12.824;2023-05-10T02:45:42;2.83;;;2.53;;
3771;SDS011;1901;48.172;12.824;2023-05-10T02:48:10;4.50;;;2.50;;
3771;SDS011;1901;48.172;12.824;2023-05-10T02:50:37;3.23;;;2.23;;
3771;SDS011;1901;48.172;12.824;2023-05-10T02:53:09;5.10;;;3.13;;
3771;SDS011;1901;48.172;12.824;2023-05-10T02:55:37;2.90;;;2.60;;
3771;SDS011;1901;48.172;12.824;2023-05-10T02:58:07;3.27;;;2.23;;
3771;SDS011;1901;48.172;12.824;2023-05-10T03:00:34;2.20;;;1.93;;
3771;SDS011;1901;48.172;12.824;2023-05-10T03:03:01;2.90;;;2.03;;
3771;SDS011;1901;48.172;12.824;2023-05-10T03:05:28;2.03;;;1.83;;
3771;SDS011;1901;48.172;12.824;2023-05-10T03:07:55;1.80;;;1.60;;
3771;SDS011;1901;48.172;12.824;2023-05-10T03:10:24;2.13;;;1.70;;
3771;SDS011;1901;48.172;12.824;2023-05-10T03:12:56;2.47;;;1.90;;
3771;SDS011;1901;48.172;12.824;2023-05-10T03:15:31;2.17;;;1.93;;
3771;SDS011;1901;48.172;12.824;2023-05-10T03:18:02;2.70;;;1.93;;
3771;SDS011;1901;48.172;12.824;2023-05-10T03:20:31;2.53;;;2.30;;
3771;SDS011;1901;48.172;12.824;2023-05-10T03:23:02;2.43;;;2.23;;
3771;SDS011;1901;48.172;12.824;2023-05-10T03:25:31;7.67;;;2.17;;
3771;SDS011;1901;48.172;12.824;2023-05-10T03:27:58;2.73;;;2.30;;
3771;SDS011;1901;48.172;12.824;2023-05-10T03:30:27;5.10;;;4.00;;
3771;SDS011;1901;48.172;12.824;2023-05-10T03:32:56;3.40;;;2.63;;
3771;SDS011;1901;48.172;12.824;2023-05-10T03:35:23;2.27;;;1.87;;
3771;SDS011;1901;48.172;12.824;2023-05-10T03:37:50;2.30;;;2.10;;
3771;SDS011;1901;48.172;12.824;2023-05-10T03:40:17;3.60;;;2.53;;
3771;SDS011;1901;48.172;12.824;2023-05-10T03:42:45;6.47;;;5.10;;
3771;SDS011;1901;48.172;12.824;2023-05-10T03:45:12;12.87;;;8.00;;
3771;SDS011;1901;48.172;12.824;2023-05-10T03:47:39;4.03;;;2.97;;
3771;SDS011;1901;48.172;12.824;2023-05-10T03:50:08;2.90;;;2.60;;
3771;SDS011;1901;48.172;12.824;2023-05-10T03:52:35;3.03;;;2.73;;
3771;SDS011;1901;48.172;12.824;2023-05-10T03:55:04;2.87;;;2.60;;
3771;SDS011;1901;48.172;12.824;2023-05-10T03:57:31;2.87;;;2.57;;
3771;SDS011;1901;48.172;12.824;2023-05-10T03:59:59;7.90;;;6.27;;
3771;SDS011;1901;48.172;12.824;2023-05-10T04:02:26;4.40;;;3.13;;
3771;SDS011;1901;48.172;12.824;2023-05-10T04:04:53;2.73;;;2.40;;
3771;SDS011;1901;48.172;12.824;2023-05-10T04:07:22;4.63;;;2.53;;
3771;SDS011;1901;48.172;12.824;2023-05-10T04:09:49;2.73;;;2.13;;
3771;SDS011;1901;48.172;12.824;2023-05-10T04:12:16;3.00;;;2.37;;
3771;SDS011;1901;48.172;12.824;2023-05-10T04:14:43;3.50;;;2.20;;
3771;SDS011;1901;48.172;12.824;2023-05-10T04:17:10;2.23;;;2.03;;
3771;SDS011;1901;48.172;12.824;2023-05-10T04:19:37;2.33;;;2.10;;
3771;SDS011;1901;48.172;12.824;2023-05-10T04:22:05;5.40;;;4.00;;
3771;SDS011;1901;48.172;12.824;2023-05-10T04:24:33;4.63;;;4.17;;
3771;SDS011;1901;48.172;12.824;2023-05-10T04:27:00;2.60;;;2.40;;
3771;SDS011;1901;48.172;12.824;2023-05-10T04:29:27;7.40;;;2.20;;
3771;SDS011;1901;48.172;12.824;2023-05-10T04:31:54;2.30;;;1.90;;
3771;SDS011;1901;48.172;12.824;2023-05-10T04:34:22;2.33;;;1.97;;
3771;SDS011;1901;48.172;12.824;2023-05-10T04:36:50;2.30;;;1.80;;
3771;SDS011;1901;48.172;12.824;2023-05-10T04:39:17;2.50;;;2.30;;
3771;SDS011;1901;48.172;12.824;2023-05-10T04:41:46;2.90;;;1.93;;
3771;SDS011;1901;48.172;12.824;2023-05-10T04:44:13;2.80;;;2.43;;
3771;SDS011;1901;48.172;12.824;2023-05-10T04:46:40;1.80;;;1.40;;
3771;SDS011;1901;48.172;12.824;2023-05-10T04:49:07;2.37;;;2.03;;
3771;SDS011;1901;48.172;12.824;2023-05-10T04:51:34;4.07;;;2.00;;
3771;SDS011;1901;48.172;12.824;2023-05-10T04:54:02;2.33;;;2.13;;
3771;SDS011;1901;48.172;12.824;2023-05-10T04:56:29;2.90;;;1.90;;
3771;SDS011;1901;48.172;12.824;2023-05-10T04:58:57;5.60;;;2.67;;
3771;SDS011;1901;48.172;12.824;2023-05-10T05:01:24;2.77;;;1.97;;
3771;SDS011;1901;48.172;12.824;2023-05-10T05:03:52;2.13;;;1.70;;
3771;SDS011;1901;48.172;12.824;2023-05-10T05:06:19;2.40;;;1.90;;
3771;SDS011;1901;48.172;12.824;2023-05-10T05:08:46;1.90;;;1.60;;
3771;SDS011;1901;48.172;12.824;2023-05-10T05:11:14;2.10;;;1.70;;
3771;SDS011;1901;48.172;12.824;2023-05-10T05:13:41;2.90;;;1.80;;
3771;SDS011;1901;48.172;12.824;2023-05-10T05:16:09;2.33;;;1.50;;
3771;SDS011;1901;48.172;12.824;2023-05-10T05:18:37;2.47;;;1.87;;
3771;SDS011;1901;48.172;12.824;2023-05-10T05:21:12;2.03;;;1.70;;
3771;SDS011;1901;48.172;12.824;2023-05-10T05:23:40;1.97;;;1.77;;
3771;SDS011;1901;48.172;12.824;2023-05-10T05:26:07;2.30;;;1.73;;
3771;SDS011;1901;48.172;12.824;2023-05-10T05:28:34;1.77;;;1.43;;
3771;SDS011;1901;48.172;12.824;2023-05-10T05:31:02;2.93;;;2.50;;
3771;SDS011;1901;48.172;12.824;2023-05-10T05:33:31;3.90;;;2.43;;
3771;SDS011;1901;48.172;12.824;2023-05-10T05:36:02;2.17;;;1.77;;
3771;SDS011;1901;48.172;12.824;2023-05-10T05:38:29;2.30;;;1.80;;
3771;SDS011;1901;48.172;12.824;2023-05-10T05:40:56;2.83;;;1.67;;
3771;SDS011;1901;48.172;12.824;2023-05-10T05:43:24;2.10;;;1.60;;
3771;SDS011;1901;48.172;12.824;2023-05-10T05:45:51;1.77;;;1.60;;
3771;SDS011;1901;48.172;12.824;2023-05-10T05:48:19;2.30;;;1.73;;
3771;SDS011;1901;48.172;12.824;2023-05-10T05:50:47;2.27;;;1.47;;
3771;SDS011;1901;48.172;12.824;2023-05-10T05:53:15;3.10;;;2.20;;
3771;SDS011;1901;48.172;12.824;2023-05-10T05:55:50;2.60;;;1.30;;
3771;SDS011;1901;48.172;12.824;2023-05-10T05:58:18;2.63;;;1.60;;
3771;SDS011;1901;48.172;12.824;2023-05-10T06:00:45;2.10;;;1.30;;
3771;SDS011;1901;48.172;12.824;2023-05-10T06:03:12;1.97;;;1.50;;
3771;SDS011;1901;48.172;12.824;2023-05-10T06:05:39;2.33;;;1.40;;
3771;SDS011;1901;48.172;12.824;2023-05-10T06:08:07;2.30;;;2.10;;
3771;SDS011;1901;48.172;12.824;2023-05-10T06:10:34;1.70;;;1.40;;
3771;SDS011;1901;48.172;12.824;2023-05-10T06:13:02;2.07;;;1.20;;
3771;SDS011;1901;48.172;12.824;2023-05-10T06:15:29;2.57;;;1.20;;
3771;SDS011;1901;48.172;12.824;2023-05-10T06:17:57;2.20;;;1.70;;
3771;SDS011;1901;48.172;12.824;2023-05-10T06:20:24;2.17;;;1.50;;
3771;SDS011;1901;48.172;12.824;2023-05-10T06:22:51;2.30;;;1.87;;
3771;SDS011;1901;48.172;12.824;2023-05-10T06:25:20;3.80;;;2.13;;
3771;SDS011;1901;48.172;12.824;2023-05-10T06:27:47;3.63;;;1.80;;
3771;SDS011;1901;48.172;12.824;2023-05-10T06:30:15;2.63;;;1.70;;
3771;SDS011;1901;48.172;12.824;2023-05-10T06:32:42;5.30;;;1.30;;
3771;SDS011;1901;48.172;12.824;2023-05-10T06:35:10;3.97;;;1.53;;
3771;SDS011;1901;48.172;12.824;2023-05-10T06:37:37;2.30;;;1.93;;
3771;SDS011;1901;48.172;12.824;2023-05-10T06:40:05;8.20;;;1.17;;
3771;SDS011;1901;48.172;12.824;2023-05-10T06:42:33;1.80;;;1.27;;
3771;SDS011;1901;48.172;12.824;2023-05-10T06:45:01;1.87;;;1.20;;
3771;SDS011;1901;48.172;12.824;2023-05-10T06:47:28;2.27;;;1.20;;
3771;SDS011;1901;48.172;12.824;2023-05-10T06:49:55;1.93;;;1.30;;
3771;SDS011;1901;48.172;12.824;2023-05-10T06:52:22;1.67;;;1.17;;
3771;SDS011;1901;48.172;12.824;2023-05-10T06:54:49;1.53;;;1.07;;
3771;SDS011;1901;48.172;12.824;2023-05-10T06:57:16;1.50;;;1.17;;
3771;SDS011;1901;48.172;12.824;2023-05-10T06:59:45;1.80;;;1.17;;
3771;SDS011;1901;48.172;12.824;2023-05-10T07:02:12;1.50;;;1.10;;
3771;SDS011;1901;48.172;12.824;2023-05-10T07:04:40;1.53;;;1.20;;
3771;SDS011;1901;48.172;12.824;2023-05-10T07:07:08;2.37;;;1.33;;
3771;SDS011;1901;48.172;12.824;2023-05-10T07:09:35;2.40;;;1.20;;
3771;SDS011;1901;48.172;12.824;2023-05-10T07:12:02;1.70;;;1.30;;
3771;SDS011;1901;48.172;12.824;2023-05-10T07:14:29;1.70;;;1.30;;
3771;SDS011;1901;48.172;12.824;2023-05-10T07:16:58;1.93;;;1.20;;
3771;SDS011;1901;48.172;12.824;2023-05-10T07:19:25;2.37;;;1.30;;
3771;SDS011;1901;48.172;12.824;2023-05-10T07:21:52;2.80;;;1.20;;
3771;SDS011;1901;48.172;12.824;2023-05-10T07:24:19;1.30;;;1.07;;
3771;SDS011;1901;48.172;12.824;2023-05-10T07:26:46;1.80;;;1.20;;
3771;SDS011;1901;48.172;12.824;2023-05-10T07:29:13;2.40;;;1.10;;
3771;SDS011;1901;48.172;12.824;2023-05-10T07:31:41;2.30;;;1.47;;
3771;SDS011;1901;48.172;12.824;2023-05-10T07:34:09;2.23;;;1.20;;
3771;SDS011;1901;48.172;12.824;2023-05-10T07:36:37;2.27;;;1.40;;
3771;SDS011;1901;48.172;12.824;2023-05-10T07:39:04;2.60;;;1.40;;
3771;SDS011;1901;48.172;12.824;2023-05-10T07:41:31;4.33;;;1.60;;
3771;SDS011;1901;48.172;12.824;2023-05-10T07:43:58;1.70;;;1.60;;
3771;SDS011;1901;48.172;12.824;2023-05-10T07:46:26;1.97;;;1.50;;
3771;SDS011;1901;48.172;12.824;2023-05-10T07:48:53;2.33;;;1.80;;
3771;SDS011;1901;48.172;12.824;2023-05-10T07:51:22;3.37;;;1.80;;
3771;SDS011;1901;48.172;12.824;2023-05-10T07:53:49;2.10;;;1.90;;
3771;SDS011;1901;48.172;12.824;2023-05-10T07:56:20;6.30;;;3.60;;
3771;SDS011;1901;48.172;12.824;2023-05-10T07:58:47;4.13;;;3.00;;
3771;SDS011;1901;48.172;12.824;2023-05-10T08:01:14;2.87;;;1.47;;
3771;SDS011;1901;48.172;12.824;2023-05-10T08:03:41;3.00;;;2.00;;
3771;SDS011;1901;48.172;12.824;2023-05-10T08:06:09;2.47;;;1.63;;
3771;SDS011;1901;48.172;12.824;2023-05-10T08:08:37;1.90;;;1.70;;
3771;SDS011;1901;48.172;12.824;2023-05-10T08:11:04;4.13;;;2.73;;
3771;SDS011;1901;48.172;12.824;2023-05-10T08:13:31;3.50;;;3.03;;
3771;SDS011;1901;48.172;12.824;2023-05-10T08:15:59;2.83;;;2.53;;
3771;SDS011;1901;48.172;12.824;2023-05-10T08:18:26;2.00;;;1.80;;
3771;SDS011;1901;48.172;12.824;2023-05-10T08:20:53;2.27;;;1.77;;
3771;SDS011;1901;48.172;12.824;2023-05-10T08:23:20;2.00;;;1.80;;
3771;SDS011;1901;48.172;12.824;2023-05-10T08:25:49;3.40;;;2.10;;
3771;SDS011;1901;48.172;12.824;2023-05-10T08:28:16;1.80;;;1.63;;
3771;SDS011;1901;48.172;12.824;2023-05-10T08:30:43;2.03;;;1.77;;
3771;SDS011;1901;48.172;12.824;2023-05-10T08:33:10;4.63;;;3.70;;
3771;SDS011;1901;48.172;12.824;2023-05-10T08:35:37;2.70;;;2.50;;
3771;SDS011;1901;48.172;12.824;2023-05-10T08:38:05;2.60;;;2.20;;
3771;SDS011;1901;48.172;12.824;2023-05-10T08:40:32;2.40;;;2.13;;
3771;SDS011;1901;48.172;12.824;2023-05-10T08:43:04;2.70;;;2.47;;
3771;SDS011;1901;48.172;12.824;2023-05-10T08:45:32;3.13;;;2.60;;
3771;SDS011;1901;48.172;12.824;2023-05-10T08:47:59;3.33;;;3.00;;
3771;SDS011;1901;48.172;12.824;2023-05-10T08:50:28;2.80;;;2.60;;
3771;SDS011;1901;48.172;12.824;2023-05-10T08:52:57;3.50;;;3.20;;
3771;SDS011;1901;48.172;12.824;2023-05-10T08:55:26;3.63;;;3.33;;
3771;SDS011;1901;48.172;12.824;2023-05-10T08:57:53;4.27;;;3.87;;
3771;SDS011;1901;48.172;12.824;2023-05-10T09:00:22;3.73;;;3.43;;
3771;SDS011;1901;48.172;12.824;2023-05-10T09:02:50;3.33;;;3.07;;
3771;SDS011;1901;48.172;12.824;2023-05-10T09:05:17;3.80;;;3.50;;
3771;SDS011;1901;48.172;12.824;2023-05-10T09:07:44;3.70;;;3.33;;
3771;SDS011;1901;48.172;12.824;2023-05-10T09:10:11;3.90;;;3.50;;
3771;SDS011;1901;48.172;12.824;2023-05-10T09:12:40;3.40;;;3.10;;
3771;SDS011;1901;48.172;12.824;2023-05-10T09:15:09;5.47;;;4.17;;
3771;SDS011;1901;48.172;12.824;2023-05-10T09:17:38;4.13;;;3.73;;
3771;SDS011;1901;48.172;12.824;2023-05-10T09:20:05;4.50;;;3.97;;
3771;SDS011;1901;48.172;12.824;2023-05-10T09:22:33;4.93;;;4.30;;
3771;SDS011;1901;48.172;12.824;2023-05-10T09:25:04;4.03;;;3.63;;
3771;SDS011;1901;48.172;12.824;2023-05-10T09:27:31;4.50;;;4.10;;
3771;SDS011;1901;48.172;12.824;2023-05-10T09:29:58;4.03;;;3.37;;
3771;SDS011;1901;48.172;12.824;2023-05-10T09:32:35;5.97;;;5.23;;
3771;SDS011;1901;48.172;12.824;2023-05-10T09:35:07;4.37;;;3.97;;
3771;SDS011;1901;48.172;12.824;2023-05-10T09:37:34;2.90;;;2.60;;
3771;SDS011;1901;48.172;12.824;2023-05-10T09:40:04;2.77;;;2.53;;
3771;SDS011;1901;48.172;12.824;2023-05-10T09:42:31;2.83;;;2.63;;
3771;SDS011;1901;48.172;12.824;2023-05-10T09:45:00;3.17;;;2.87;;
3771;SDS011;1901;48.172;12.824;2023-05-10T09:47:27;3.00;;;2.40;;
3771;SDS011;1901;48.172;12.824;2023-05-10T09:49:55;3.50;;;2.27;;
3771;SDS011;1901;48.172;12.824;2023-05-10T09:52:29;2.80;;;2.60;;
3771;SDS011;1901;48.172;12.824;2023-05-10T09:54:57;3.37;;;3.07;;
3771;SDS011;1901;48.172;12.824;2023-05-10T09:57:24;3.20;;;2.90;;
3771;SDS011;1901;48.172;12.824;2023-05-10T09:59:52;3.13;;;2.83;;
3771;SDS011;1901;48.172;12.824;2023-05-10T10:02:20;3.40;;;3.03;;
3771;SDS011;1901;48.172;12.824;2023-05-10T10:04:49;3.27;;;2.97;;
3771;SDS011;1901;48.172;12.824;2023-05-10T10:07:17;2.83;;;2.33;;
3771;SDS011;1901;48.172;12.824;2023-05-10T10:09:50;3.07;;;2.87;;
3771;SDS011;1901;48.172;12.824;2023-05-10T10:12:18;4.57;;;3.50;;
3771;SDS011;1901;48.172;12.824;2023-05-10T10:14:45;6.43;;;5.63;;
3771;SDS011;1901;48.172;12.824;2023-05-10T10:17:14;3.63;;;3.23;;
3771;SDS011;1901;48.172;12.824;2023-05-10T10:19:41;4.97;;;3.60;;
3771;SDS011;1901;48.172;12.824;2023-05-10T10:22:09;8.93;;;3.37;;
3771;SDS011;1901;48.172;12.824;2023-05-10T10:24:37;3.53;;;3.23;;
3771;SDS011;1901;48.172;12.824;2023-05-10T10:27:12;4.10;;;3.70;;
3771;SDS011;1901;48.172;12.824;2023-05-10T10:29:44;3.70;;;3.40;;
3771;SDS011;1901;48.172;12.824;2023-05-10T10:32:19;3.83;;;3.53;;
3771;SDS011;1901;48.172;12.824;2023-05-10T10:34:47;3.60;;;3.30;;
3771;SDS011;1901;48.172;12.824;2023-05-10T10:37:14;6.53;;;4.20;;
3771;SDS011;1901;48.172;12.824;2023-05-10T10:39:42;3.77;;;3.43;;
3771;SDS011;1901;48.172;12.824;2023-05-10T10:42:10;3.47;;;3.17;;
3771;SDS011;1901;48.172;12.824;2023-05-10T10:44:37;3.33;;;3.03;;
3771;SDS011;1901;48.172;12.824;2023-05-10T10:47:07;3.63;;;3.33;;
3771;SDS011;1901;48.172;12.824;2023-05-10T10:49:42;3.53;;;3.23;;
3771;SDS011;1901;48.172;12.824;2023-05-10T10:52:13;3.63;;;3.10;;
3771;SDS011;1901;48.172;12.824;2023-05-10T10:54:40;8.03;;;3.17;;
3771;SDS011;1901;48.172;12.824;2023-05-10T10:57:12;3.27;;;2.70;;
3771;SDS011;1901;48.172;12.824;2023-05-10T10:59:42;3.10;;;2.80;;
3771;SDS011;1901;48.172;12.824;2023-05-10T11:02:10;9.63;;;2.77;;
3771;SDS011;1901;48.172;12.824;2023-05-10T11:04:57;2.90;;;2.70;;
3771;SDS011;1901;48.172;12.824;2023-05-10T11:07:24;3.50;;;3.13;;
3771;SDS011;1901;48.172;12.824;2023-05-10T11:09:51;2.97;;;2.70;;
3771;SDS011;1901;48.172;12.824;2023-05-10T11:12:20;4.20;;;3.80;;
3771;SDS011;1901;48.172;12.824;2023-05-10T11:14:49;4.73;;;4.00;;
3771;SDS011;1901;48.172;12.824;2023-05-10T11:17:23;2.53;;;2.33;;
3771;SDS011;1901;48.172;12.824;2023-05-10T11:20:07;5.40;;;4.10;;
3771;SDS011;1901;48.172;12.824;2023-05-10T11:22:48;5.43;;;2.70;;
3771;SDS011;1901;48.172;12.824;2023-05-10T11:25:16;31.47;;;17.57;;
3771;SDS011;1901;48.172;12.824;2023-05-10T11:27:45;10.50;;;8.50;;
3771;SDS011;1901;48.172;12.824;2023-05-10T11:30:14;7.63;;;4.60;;
3771;SDS011;1901;48.172;12.824;2023-05-10T11:32:41;3.40;;;2.97;;
3771;SDS011;1901;48.172;12.824;2023-05-10T11:35:09;5.30;;;3.80;;
3771;SDS011;1901;48.172;12.824;2023-05-10T11:37:37;4.83;;;3.10;;
3771;SDS011;1901;48.172;12.824;2023-05-10T11:40:07;2.60;;;2.40;;
3771;SDS011;1901;48.172;12.824;2023-05-10T11:42:35;3.00;;;2.80;;
3771;SDS011;1901;48.172;12.824;2023-05-10T11:45:04;3.33;;;3.03;;
3771;SDS011;1901;48.172;12.824;2023-05-10T11:47:32;3.00;;;2.37;;
3771;SDS011;1901;48.172;12.824;2023-05-10T11:50:00;2.40;;;2.20;;
3771;SDS011;1901;48.172;12.824;2023-05-10T11:52:27;3.00;;;2.60;;
3771;SDS011;1901;48.172;12.824;2023-05-10T11:54:55;4.23;;;3.60;;
3771;SDS011;1901;48.172;12.824;2023-05-10T11:57:25;3.83;;;3.43;;
3771;SDS011;1901;48.172;12.824;2023-05-10T11:59:52;3.07;;;2.80;;
3771;SDS011;1901;48.172;12.824;2023-05-10T12:02:22;4.70;;;3.57;;
3771;SDS011;1901;48.172;12.824;2023-05-10T12:04:49;2.60;;;2.40;;
3771;SDS011;1901;48.172;12.824;2023-05-10T12:07:16;2.70;;;2.50;;
3771;SDS011;1901;48.172;12.824;2023-05-10T12:09:44;3.40;;;3.10;;
3771;SDS011;1901;48.172;12.824;2023-05-10T12:12:15;4.30;;;3.90;;
3771;SDS011;1901;48.172;12.824;2023-05-10T12:14:42;5.07;;;4.60;;
3771;SDS011;1901;48.172;12.824;2023-05-10T12:17:11;3.60;;;3.30;;
3771;SDS011;1901;48.172;12.824;2023-05-10T12:22:08;4.70;;;4.30;;
3771;SDS011;1901;48.172;12.824;2023-05-10T12:24:35;5.33;;;4.83;;
3771;SDS011;1901;48.172;12.824;2023-05-10T12:27:04;6.40;;;5.07;;
3771;SDS011;1901;48.172;12.824;2023-05-10T12:29:33;5.93;;;5.33;;
3771;SDS011;1901;48.172;12.824;2023-05-10T12:32:00;6.23;;;4.97;;
3771;SDS011;1901;48.172;12.824;2023-05-10T12:34:30;4.03;;;3.60;;
3771;SDS011;1901;48.172;12.824;2023-05-10T12:36:57;6.53;;;5.43;;
3771;SDS011;1901;48.172;12.824;2023-05-10T12:39:26;10.93;;;7.70;;
3771;SDS011;1901;48.172;12.824;2023-05-10T12:42:04;21.93;;;12.70;;
3771;SDS011;1901;48.172;12.824;2023-05-10T12:44:31;6.50;;;5.63;;
3771;SDS011;1901;48.172;12.824;2023-05-10T12:46:58;5.23;;;4.73;;
3771;SDS011;1901;48.172;12.824;2023-05-10T12:49:25;3.60;;;3.10;;
3771;SDS011;1901;48.172;12.824;2023-05-10T12:51:52;5.00;;;4.50;;
3771;SDS011;1901;48.172;12.824;2023-05-10T12:54:19;4.60;;;4.20;;
3771;SDS011;1901;48.172;12.824;2023-05-10T12:56:48;5.97;;;4.63;;
3771;SDS011;1901;48.172;12.824;2023-05-10T12:59:15;4.07;;;3.77;;
3771;SDS011;1901;48.172;12.824;2023-05-10T13:01:42;2.53;;;2.33;;
3771;SDS011;1901;48.172;12.824;2023-05-10T13:04:09;2.00;;;1.80;;
3771;SDS011;1901;48.172;12.824;2023-05-10T13:06:36;3.27;;;2.20;;
3771;SDS011;1901;48.172;12.824;2023-05-10T13:09:04;3.40;;;3.07;;
3771;SDS011;1901;48.172;12.824;2023-05-10T13:11:31;3.63;;;3.03;;
3771;SDS011;1901;48.172;12.824;2023-05-10T13:13:59;2.70;;;2.50;;
3771;SDS011;1901;48.172;12.824;2023-05-10T13:16:28;2.57;;;2.20;;
3771;SDS011;1901;48.172;12.824;2023-05-10T13:18:55;2.60;;;2.40;;
3771;SDS011;1901;48.172;12.824;2023-05-10T13:21:22;2.83;;;2.53;;
3771;SDS011;1901;48.172;12.824;2023-05-10T13:23:50;2.80;;;2.30;;
3771;SDS011;1901;48.172;12.824;2023-05-10T13:26:17;4.00;;;3.40;;
3771;SDS011;1901;48.172;12.824;2023-05-10T13:28:45;3.87;;;3.00;;
3771;SDS011;1901;48.172;12.824;2023-05-10T13:31:15;2.40;;;2.20;;
3771;SDS011;1901;48.172;12.824;2023-05-10T13:33:42;3.40;;;2.80;;
3771;SDS011;1901;48.172;12.824;2023-05-10T13:36:09;5.27;;;3.23;;
3771;SDS011;1901;48.172;12.824;2023-05-10T13:38:36;11.70;;;8.67;;
3771;SDS011;1901;48.172;12.824;2023-05-10T13:41:03;4.60;;;3.10;;
3771;SDS011;1901;48.172;12.824;2023-05-10T13:43:30;5.23;;;3.20;;
3771;SDS011;1901;48.172;12.824;2023-05-10T13:45:58;3.97;;;3.20;;
3771;SDS011;1901;48.172;12.824;2023-05-10T13:48:26;3.43;;;3.13;;
3771;SDS011;1901;48.172;12.824;2023-05-10T13:50:53;4.73;;;2.93;;
3771;SDS011;1901;48.172;12.824;2023-05-10T13:53:21;3.00;;;2.47;;
3771;SDS011;1901;48.172;12.824;2023-05-10T13:55:48;4.43;;;2.90;;
3771;SDS011;1901;48.172;12.824;2023-05-10T13:58:15;3.30;;;2.30;;
3771;SDS011;1901;48.172;12.824;2023-05-10T14:00:42;2.87;;;2.03;;
3771;SDS011;1901;48.172;12.824;2023-05-10T14:03:10;2.70;;;2.50;;
3771;SDS011;1901;48.172;12.824;2023-05-10T14:05:38;2.10;;;1.70;;
3771;SDS011;1901;48.172;12.824;2023-05-10T14:08:06;2.50;;;2.00;;
3771;SDS011;1901;48.172;12.824;2023-05-10T14:10:34;3.13;;;2.00;;
3771;SDS011;1901;48.172;12.824;2023-05-10T14:13:01;8.77;;;6.00;;
3771;SDS011;1901;48.172;12.824;2023-05-10T14:15:29;3.67;;;2.60;;
3771;SDS011;1901;48.172;12.824;2023-05-10T14:17:56;3.83;;;2.70;;
3771;SDS011;1901;48.172;12.824;2023-05-10T14:20:23;2.10;;;1.90;;
3771;SDS011;1901;48.172;12.824;2023-05-10T14:22:51;4.30;;;2.70;;
3771;SDS011;1901;48.172;12.824;2023-05-10T14:25:19;3.03;;;2.50;;
3771;SDS011;1901;48.172;12.824;2023-05-10T14:27:46;4.40;;;3.10;;
3771;SDS011;1901;48.172;12.824;2023-05-10T14:30:13;4.33;;;3.63;;
3771;SDS011;1901;48.172;12.824;2023-05-10T14:32:41;7.43;;;4.13;;
3771;SDS011;1901;48.172;12.824;2023-05-10T14:35:08;4.90;;;4.40;;
3771;SDS011;1901;48.172;12.824;2023-05-10T14:37:35;5.13;;;4.50;;
3771;SDS011;1901;48.172;12.824;2023-05-10T14:40:05;3.70;;;3.40;;
3771;SDS011;1901;48.172;12.824;2023-05-10T14:42:32;3.43;;;3.13;;
3771;SDS011;1901;48.172;12.824;2023-05-10T14:44:59;2.47;;;2.27;;
3771;SDS011;1901;48.172;12.824;2023-05-10T14:47:27;2.77;;;2.40;;
3771;SDS011;1901;48.172;12.824;2023-05-10T14:49:54;2.50;;;2.30;;
3771;SDS011;1901;48.172;12.824;2023-05-10T14:52:21;2.60;;;2.40;;
3771;SDS011;1901;48.172;12.824;2023-05-10T14:54:48;2.50;;;2.20;;
3771;SDS011;1901;48.172;12.824;2023-05-10T14:57:17;1.97;;;1.77;;
3771;SDS011;1901;48.172;12.824;2023-05-10T14:59:44;2.13;;;1.93;;
3771;SDS011;1901;48.172;12.824;2023-05-10T15:02:11;2.60;;;1.67;;
3771;SDS011;1901;48.172;12.824;2023-05-10T15:04:38;4.90;;;1.80;;
3771;SDS011;1901;48.172;12.824;2023-05-10T15:07:05;2.03;;;1.60;;
3771;SDS011;1901;48.172;12.824;2023-05-10T15:09:33;2.00;;;1.60;;
3771;SDS011;1901;48.172;12.824;2023-05-10T15:12:00;4.33;;;2.00;;
3771;SDS011;1901;48.172;12.824;2023-05-10T15:14:29;2.70;;;1.57;;